sensor_id;sensor_type;location;lat;lon;timestamp;temperature;humidity
37242;DHT22;23135;51.078;12.108;2023-04-03T00:02:15;2.60;99.90
37242;DHT22;23135;51.078;12.108;2023-04-03T00:04:41;2.50;99.90
37242;DHT22;23135;51.078;12.108;2023-04-03T00:07:07;2.50;99.90
37242;DHT22;23135;51.078;12.108;2023-04-03T00:09:32;2.50;99.90
37242;DHT22;23135;51.078;12.108;2023-04-03T00:11:58;2.40;99.90
37242;DHT22;23135;51.078;12.108;2023-04-03T00:14:23;2.40;99.90
37242;DHT22;23135;51.078;12.108;2023-04-03T00:16:49;2.40;99.90
37242;DHT22;23135;51.078;12.108;2023-04-03T00:19:14;2.40;99.90
37242;DHT22;23135;51.078;12.108;2023-04-03T00:21:40;2.30;99.90
37242;DHT22;23135;51.078;12.108;2023-04-03T00:24:06;2.30;99.90
37242;DHT22;23135;51.078;12.108;2023-04-03T00:26:32;2.20;99.90
37242;DHT22;23135;51.078;12.108;2023-04-03T00:28:57;2.20;99.90
37242;DHT22;23135;51.078;12.108;2023-04-03T00:31:23;2.20;99.90
37242;DHT22;23135;51.078;12.108;2023-04-03T00:33:48;2.20;99.90
37242;DHT22;23135;51.078;12.108;2023-04-03T00:36:14;2.20;99.90
37242;DHT22;23135;51.078;12.108;2023-04-03T00:38:41;2.20;99.90
37242;DHT22;23135;51.078;12.108;2023-04-03T00:41:07;2.10;99.90
37242;DHT22;23135;51.078;12.108;2023-04-03T00:43:33;2.10;99.90
37242;DHT22;23135;51.078;12.108;2023-04-03T00:45:59;2.10;99.90
37242;DHT22;23135;51.078;12.108;2023-04-03T00:48:31;2.10;99.90
37242;DHT22;23135;51.078;12.108;2023-04-03T00:50:58;2.00;99.90
37242;DHT22;23135;51.078;12.108;2023-04-03T00:53:29;2.00;99.90
37242;DHT22;23135;51.078;12.108;2023-04-03T00:55:56;2.00;99.90
37242;DHT22;23135;51.078;12.108;2023-04-03T00:58:32;2.00;99.90
37242;DHT22;23135;51.078;12.108;2023-04-03T01:00:59;1.90;99.90
37242;DHT22;23135;51.078;12.108;2023-04-03T01:03:28;1.90;99.90
37242;DHT22;23135;51.078;12.108;2023-04-03T01:05:56;1.90;99.90
37242;DHT22;23135;51.078;12.108;2023-04-03T01:08:22;1.90;99.90
37242;DHT22;23135;51.078;12.108;2023-04-03T01:10:48;1.80;99.90
37242;DHT22;23135;51.078;12.108;2023-04-03T01:13:33;1.80;99.90
37242;DHT22;23135;51.078;12.108;2023-04-03T01:16:04;1.80;99.90
37242;DHT22;23135;51.078;12.108;2023-04-03T01:18:30;1.80;99.90
37242;DHT22;23135;51.078;12.108;2023-04-03T01:24:25;1.70;99.90
37242;DHT22;23135;51.078;12.108;2023-04-03T01:26:46;1.70;99.90
37242;DHT22;23135;51.078;12.108;2023-04-03T01:29:13;1.70;99.90
37242;DHT22;23135;51.078;12.108;2023-04-03T01:31:57;1.60;99.90
37242;DHT22;23135;51.078;12.108;2023-04-03T01:34:24;1.60;99.90
37242;DHT22;23135;51.078;12.108;2023-04-03T01:36:49;1.60;99.90
37242;DHT22;23135;51.078;12.108;2023-04-03T01:39:16;1.60;99.90
37242;DHT22;23135;51.078;12.108;2023-04-03T01:41:42;1.50;99.90
37242;DHT22;23135;51.078;12.108;2023-04-03T01:44:07;1.50;99.90
37242;DHT22;23135;51.078;12.108;2023-04-03T01:46:33;1.50;99.90
37242;DHT22;23135;51.078;12.108;2023-04-03T01:48:58;1.40;99.90
37242;DHT22;23135;51.078;12.108;2023-04-03T01:51:24;1.40;99.90
37242;DHT22;23135;51.078;12.108;2023-04-03T01:53:50;1.30;99.90
37242;DHT22;23135;51.078;12.108;2023-04-03T01:56:16;1.30;99.90
37242;DHT22;23135;51.078;12.108;2023-04-03T01:58:42;1.20;99.90
37242;DHT22;23135;51.078;12.108;2023-04-03T02:01:08;1.20;99.90
37242;DHT22;23135;51.078;12.108;2023-04-03T02:03:33;1.10;99.90
37242;DHT22;23135;51.078;12.108;2023-04-03T02:05:59;1.10;99.90
37242;DHT22;23135;51.078;12.108;2023-04-03T02:08:25;1.10;99.90
37242;DHT22;23135;51.078;12.108;2023-04-03T02:10:51;1.00;99.90
37242;DHT22;23135;51.078;12.108;2023-04-03T02:13:17;1.00;99.90
37242;DHT22;23135;51.078;12.108;2023-04-03T02:15:43;0.90;99.90
37242;DHT22;23135;51.078;12.108;2023-04-03T02:18:09;0.90;99.90
37242;DHT22;23135;51.078;12.108;2023-04-03T02:20:35;0.90;99.90
37242;DHT22;23135;51.078;12.108;2023-04-03T02:23:00;0.80;99.90
37242;DHT22;23135;51.078;12.108;2023-04-03T02:25:26;0.80;99.90
37242;DHT22;23135;51.078;12.108;2023-04-03T02:27:52;0.80;99.90
37242;DHT22;23135;51.078;12.108;2023-04-03T02:30:18;0.70;99.90
37242;DHT22;23135;51.078;12.108;2023-04-03T02:32:43;0.60;99.90
37242;DHT22;23135;51.078;12.108;2023-04-03T02:35:10;0.60;99.90
37242;DHT22;23135;51.078;12.108;2023-04-03T02:37:36;0.60;99.90
37242;DHT22;23135;51.078;12.108;2023-04-03T02:40:01;0.50;99.90
37242;DHT22;23135;51.078;12.108;2023-04-03T02:42:27;0.50;99.90
37242;DHT22;23135;51.078;12.108;2023-04-03T02:44:53;0.50;99.90
37242;DHT22;23135;51.078;12.108;2023-04-03T02:47:18;0.40;99.90
37242;DHT22;23135;51.078;12.108;2023-04-03T02:49:44;0.40;99.90
37242;DHT22;23135;51.078;12.108;2023-04-03T02:52:12;0.40;99.90
37242;DHT22;23135;51.078;12.108;2023-04-03T02:54:37;0.40;99.90
37242;DHT22;23135;51.078;12.108;2023-04-03T02:57:03;0.30;99.90
37242;DHT22;23135;51.078;12.108;2023-04-03T02:59:28;0.30;99.90
37242;DHT22;23135;51.078;12.108;2023-04-03T03:01:54;0.30;99.90
37242;DHT22;23135;51.078;12.108;2023-04-03T03:04:21;0.30;99.90
37242;DHT22;23135;51.078;12.108;2023-04-03T03:06:46;0.30;99.90
37242;DHT22;23135;51.078;12.108;2023-04-03T03:09:12;0.30;99.90
37242;DHT22;23135;51.078;12.108;2023-04-03T03:11:38;0.20;99.90
37242;DHT22;23135;51.078;12.108;2023-04-03T03:14:04;0.20;99.90
37242;DHT22;23135;51.078;12.108;2023-04-03T03:16:30;0.10;99.90
37242;DHT22;23135;51.078;12.108;2023-04-03T03:18:55;0.10;99.90
37242;DHT22;23135;51.078;12.108;2023-04-03T03:21:21;0.10;99.90
37242;DHT22;23135;51.078;12.108;2023-04-03T03:23:47;0.10;99.90
37242;DHT22;23135;51.078;12.108;2023-04-03T03:26:12;0.10;99.90
37242;DHT22;23135;51.078;12.108;2023-04-03T03:28:39;0.00;99.90
37242;DHT22;23135;51.078;12.108;2023-04-03T03:31:05;0.00;99.90
37242;DHT22;23135;51.078;12.108;2023-04-03T03:33:31;-0.10;99.90
37242;DHT22;23135;51.078;12.108;2023-04-03T03:35:57;-0.10;99.90
37242;DHT22;23135;51.078;12.108;2023-04-03T03:38:22;-0.10;99.90
37242;DHT22;23135;51.078;12.108;2023-04-03T03:40:49;-0.20;99.90
37242;DHT22;23135;51.078;12.108;2023-04-03T03:43:15;-0.20;99.90
37242;DHT22;23135;51.078;12.108;2023-04-03T03:45:41;-0.20;99.90
37242;DHT22;23135;51.078;12.108;2023-04-03T03:48:07;-0.20;99.90
37242;DHT22;23135;51.078;12.108;2023-04-03T03:50:33;-0.20;99.90
37242;DHT22;23135;51.078;12.108;2023-04-03T03:52:59;-0.20;99.90
37242;DHT22;23135;51.078;12.108;2023-04-03T03:55:24;-0.30;99.90
37242;DHT22;23135;51.078;12.108;2023-04-03T03:57:50;-0.30;99.90
37242;DHT22;23135;51.078;12.108;2023-04-03T04:00:16;-0.30;99.90
37242;DHT22;23135;51.078;12.108;2023-04-03T04:02:42;-0.30;99.90
37242;DHT22;23135;51.078;12.108;2023-04-03T04:05:08;-0.30;99.90
37242;DHT22;23135;51.078;12.108;2023-04-03T04:07:34;-0.40;99.90
37242;DHT22;23135;51.078;12.108;2023-04-03T04:09:59;-0.30;99.90
37242;DHT22;23135;51.078;12.108;2023-04-03T04:12:25;-0.40;99.90
37242;DHT22;23135;51.078;12.108;2023-04-03T04:14:50;-0.40;99.90
37242;DHT22;23135;51.078;12.108;2023-04-03T04:17:16;-0.40;99.90
37242;DHT22;23135;51.078;12.108;2023-04-03T04:19:41;-0.40;99.90
37242;DHT22;23135;51.078;12.108;2023-04-03T04:22:07;-0.50;99.90
37242;DHT22;23135;51.078;12.108;2023-04-03T04:24:33;-0.50;99.90
37242;DHT22;23135;51.078;12.108;2023-04-03T04:26:58;-0.50;99.90
37242;DHT22;23135;51.078;12.108;2023-04-03T04:29:24;-0.50;99.90
37242;DHT22;23135;51.078;12.108;2023-04-03T04:31:50;-0.50;99.90
37242;DHT22;23135;51.078;12.108;2023-04-03T04:34:15;-0.50;99.90
37242;DHT22;23135;51.078;12.108;2023-04-03T04:36:41;-0.40;99.90
37242;DHT22;23135;51.078;12.108;2023-04-03T04:39:07;-0.50;99.90
37242;DHT22;23135;51.078;12.108;2023-04-03T04:41:32;-0.50;99.90
37242;DHT22;23135;51.078;12.108;2023-04-03T04:43:58;-0.50;99.90
37242;DHT22;23135;51.078;12.108;2023-04-03T04:46:23;-0.50;99.90
37242;DHT22;23135;51.078;12.108;2023-04-03T04:48:49;-0.50;99.90
37242;DHT22;23135;51.078;12.108;2023-04-03T04:51:15;-0.60;99.90
37242;DHT22;23135;51.078;12.108;2023-04-03T04:53:41;-0.50;99.90
37242;DHT22;23135;51.078;12.108;2023-04-03T04:56:07;-0.30;99.90
37242;DHT22;23135;51.078;12.108;2023-04-03T04:58:32;-0.30;99.90
37242;DHT22;23135;51.078;12.108;2023-04-03T05:01:03;-0.10;99.90
37242;DHT22;23135;51.078;12.108;2023-04-03T05:03:30;-0.10;99.90
37242;DHT22;23135;51.078;12.108;2023-04-03T05:05:55;0.00;99.90
37242;DHT22;23135;51.078;12.108;2023-04-03T05:08:21;0.00;99.90
37242;DHT22;23135;51.078;12.108;2023-04-03T05:10:47;-0.10;99.90
37242;DHT22;23135;51.078;12.108;2023-04-03T05:13:14;0.10;99.90
37242;DHT22;23135;51.078;12.108;2023-04-03T05:15:40;0.30;99.90
37242;DHT22;23135;51.078;12.108;2023-04-03T05:18:06;0.40;99.90
37242;DHT22;23135;51.078;12.108;2023-04-03T05:20:32;0.40;99.90
37242;DHT22;23135;51.078;12.108;2023-04-03T05:22:58;0.30;99.90
37242;DHT22;23135;51.078;12.108;2023-04-03T05:25:23;0.20;99.90
37242;DHT22;23135;51.078;12.108;2023-04-03T05:27:49;0.00;99.90
37242;DHT22;23135;51.078;12.108;2023-04-03T05:30:15;0.20;99.90
37242;DHT22;23135;51.078;12.108;2023-04-03T05:32:41;0.50;99.90
37242;DHT22;23135;51.078;12.108;2023-04-03T05:35:08;0.50;99.90
37242;DHT22;23135;51.078;12.108;2023-04-03T05:37:34;0.60;99.90
37242;DHT22;23135;51.078;12.108;2023-04-03T05:40:00;0.80;99.90
37242;DHT22;23135;51.078;12.108;2023-04-03T05:42:26;0.80;99.90
37242;DHT22;23135;51.078;12.108;2023-04-03T05:44:51;0.80;99.90
37242;DHT22;23135;51.078;12.108;2023-04-03T05:47:18;0.60;99.90
37242;DHT22;23135;51.078;12.108;2023-04-03T05:49:44;0.50;99.90
37242;DHT22;23135;51.078;12.108;2023-04-03T05:52:29;0.20;99.90
37242;DHT22;23135;51.078;12.108;2023-04-03T05:54:55;0.10;99.90
37242;DHT22;23135;51.078;12.108;2023-04-03T05:57:21;0.00;99.90
37242;DHT22;23135;51.078;12.108;2023-04-03T05:59:46;-0.10;99.90
37242;DHT22;23135;51.078;12.108;2023-04-03T06:02:14;-0.10;99.90
37242;DHT22;23135;51.078;12.108;2023-04-03T06:04:40;-0.10;99.90
37242;DHT22;23135;51.078;12.108;2023-04-03T06:07:08;-0.10;99.90
37242;DHT22;23135;51.078;12.108;2023-04-03T06:09:35;-0.10;99.90
37242;DHT22;23135;51.078;12.108;2023-04-03T06:12:00;-0.10;99.90
37242;DHT22;23135;51.078;12.108;2023-04-03T06:14:27;0.00;99.90
37242;DHT22;23135;51.078;12.108;2023-04-03T06:16:53;0.00;99.90
37242;DHT22;23135;51.078;12.108;2023-04-03T06:19:19;0.10;99.90
37242;DHT22;23135;51.078;12.108;2023-04-03T06:21:45;0.10;99.90
37242;DHT22;23135;51.078;12.108;2023-04-03T06:24:14;0.10;99.90
37242;DHT22;23135;51.078;12.108;2023-04-03T06:26:41;0.10;99.90
37242;DHT22;23135;51.078;12.108;2023-04-03T06:29:06;0.10;99.90
37242;DHT22;23135;51.078;12.108;2023-04-03T06:31:32;0.20;99.90
37242;DHT22;23135;51.078;12.108;2023-04-03T06:33:58;0.20;99.90
37242;DHT22;23135;51.078;12.108;2023-04-03T06:36:23;0.30;99.90
37242;DHT22;23135;51.078;12.108;2023-04-03T06:38:49;0.30;99.90
37242;DHT22;23135;51.078;12.108;2023-04-03T06:41:16;0.40;99.90
37242;DHT22;23135;51.078;12.108;2023-04-03T06:43:43;0.50;99.90
37242;DHT22;23135;51.078;12.108;2023-04-03T06:46:20;0.60;99.90
37242;DHT22;23135;51.078;12.108;2023-04-03T06:48:47;0.60;99.90
37242;DHT22;23135;51.078;12.108;2023-04-03T06:51:28;0.60;99.90
37242;DHT22;23135;51.078;12.108;2023-04-03T06:53:56;0.60;99.90
37242;DHT22;23135;51.078;12.108;2023-04-03T06:56:22;0.70;99.90
37242;DHT22;23135;51.078;12.108;2023-04-03T06:58:48;0.80;99.90
37242;DHT22;23135;51.078;12.108;2023-04-03T07:01:16;0.80;99.90
37242;DHT22;23135;51.078;12.108;2023-04-03T07:03:45;0.90;99.90
37242;DHT22;23135;51.078;12.108;2023-04-03T07:06:12;0.90;99.90
37242;DHT22;23135;51.078;12.108;2023-04-03T07:08:38;0.90;99.90
37242;DHT22;23135;51.078;12.108;2023-04-03T07:11:05;1.00;99.90
37242;DHT22;23135;51.078;12.108;2023-04-03T07:13:31;1.30;99.90
37242;DHT22;23135;51.078;12.108;2023-04-03T07:15:58;1.30;99.90
37242;DHT22;23135;51.078;12.108;2023-04-03T07:18:23;1.40;99.90
37242;DHT22;23135;51.078;12.108;2023-04-03T07:20:49;1.50;99.90
37242;DHT22;23135;51.078;12.108;2023-04-03T07:23:15;1.30;99.90
37242;DHT22;23135;51.078;12.108;2023-04-03T07:25:47;1.60;99.90
37242;DHT22;23135;51.078;12.108;2023-04-03T07:28:13;1.70;99.90
37242;DHT22;23135;51.078;12.108;2023-04-03T07:30:47;1.60;99.90
37242;DHT22;23135;51.078;12.108;2023-04-03T07:33:16;1.50;99.90
37242;DHT22;23135;51.078;12.108;2023-04-03T07:35:43;1.50;99.90
37242;DHT22;23135;51.078;12.108;2023-04-03T07:38:09;1.50;99.90
37242;DHT22;23135;51.078;12.108;2023-04-03T07:40:36;1.60;99.90
37242;DHT22;23135;51.078;12.108;2023-04-03T07:43:02;2.10;99.90
37242;DHT22;23135;51.078;12.108;2023-04-03T07:45:28;2.40;99.90
37242;DHT22;23135;51.078;12.108;2023-04-03T07:47:54;2.40;99.90
37242;DHT22;23135;51.078;12.108;2023-04-03T07:50:21;2.50;99.90
37242;DHT22;23135;51.078;12.108;2023-04-03T07:52:47;3.00;99.90
37242;DHT22;23135;51.078;12.108;2023-04-03T07:55:13;3.30;99.90
37242;DHT22;23135;51.078;12.108;2023-04-03T07:57:39;3.50;99.90
37242;DHT22;23135;51.078;12.108;2023-04-03T08:00:06;3.80;99.90
37242;DHT22;23135;51.078;12.108;2023-04-03T08:02:31;4.00;99.90
37242;DHT22;23135;51.078;12.108;2023-04-03T08:05:00;4.30;99.90
37242;DHT22;23135;51.078;12.108;2023-04-03T08:07:26;4.30;99.90
37242;DHT22;23135;51.078;12.108;2023-04-03T08:09:51;4.30;99.90
37242;DHT22;23135;51.078;12.108;2023-04-03T08:12:17;4.20;99.90
37242;DHT22;23135;51.078;12.108;2023-04-03T08:14:43;4.20;99.90
37242;DHT22;23135;51.078;12.108;2023-04-03T08:17:09;3.90;99.90
37242;DHT22;23135;51.078;12.108;2023-04-03T08:19:38;3.60;99.90
37242;DHT22;23135;51.078;12.108;2023-04-03T08:22:04;4.10;99.90
37242;DHT22;23135;51.078;12.108;2023-04-03T08:24:30;4.30;99.90
37242;DHT22;23135;51.078;12.108;2023-04-03T08:26:56;4.40;99.90
37242;DHT22;23135;51.078;12.108;2023-04-03T08:29:22;4.70;99.90
37242;DHT22;23135;51.078;12.108;2023-04-03T08:31:48;4.80;99.90
37242;DHT22;23135;51.078;12.108;2023-04-03T08:34:15;4.70;99.90
37242;DHT22;23135;51.078;12.108;2023-04-03T08:36:41;4.70;99.90
37242;DHT22;23135;51.078;12.108;2023-04-03T08:39:07;4.80;99.90
37242;DHT22;23135;51.078;12.108;2023-04-03T08:41:36;5.00;99.90
37242;DHT22;23135;51.078;12.108;2023-04-03T08:49:57;3.80;99.90
37242;DHT22;23135;51.078;12.108;2023-04-03T08:52:38;3.70;99.90
37242;DHT22;23135;51.078;12.108;2023-04-03T08:55:07;3.80;99.90
37242;DHT22;23135;51.078;12.108;2023-04-03T08:57:40;3.70;99.90
37242;DHT22;23135;51.078;12.108;2023-04-03T09:02:48;4.40;99.90
37242;DHT22;23135;51.078;12.108;2023-04-03T09:05:18;4.80;99.90
37242;DHT22;23135;51.078;12.108;2023-04-03T09:07:47;5.10;99.90
37242;DHT22;23135;51.078;12.108;2023-04-03T09:10:19;5.60;99.90
37242;DHT22;23135;51.078;12.108;2023-04-03T09:12:59;5.70;99.90
37242;DHT22;23135;51.078;12.108;2023-04-03T09:15:26;5.60;99.90
37242;DHT22;23135;51.078;12.108;2023-04-03T09:18:04;5.40;99.90
37242;DHT22;23135;51.078;12.108;2023-04-03T09:20:39;5.00;99.90
37242;DHT22;23135;51.078;12.108;2023-04-03T09:23:28;4.70;99.90
37242;DHT22;23135;51.078;12.108;2023-04-03T09:26:17;4.60;99.90
37242;DHT22;23135;51.078;12.108;2023-04-03T09:28:43;4.90;99.90
37242;DHT22;23135;51.078;12.108;2023-04-03T09:31:32;4.40;99.90
37242;DHT22;23135;51.078;12.108;2023-04-03T09:34:04;4.20;99.90
37242;DHT22;23135;51.078;12.108;2023-04-03T09:36:42;4.60;99.90
37242;DHT22;23135;51.078;12.108;2023-04-03T09:39:13;4.80;99.90
37242;DHT22;23135;51.078;12.108;2023-04-03T09:41:40;4.60;99.90
37242;DHT22;23135;51.078;12.108;2023-04-03T09:44:21;4.70;99.90
37242;DHT22;23135;51.078;12.108;2023-04-03T09:46:47;4.70;99.90
37242;DHT22;23135;51.078;12.108;2023-04-03T09:49:13;4.30;99.90
37242;DHT22;23135;51.078;12.108;2023-04-03T09:51:39;4.20;99.90
37242;DHT22;23135;51.078;12.108;2023-04-03T09:54:38;4.10;99.90
37242;DHT22;23135;51.078;12.108;2023-04-03T09:57:15;4.00;99.90
37242;DHT22;23135;51.078;12.108;2023-04-03T09:59:56;4.20;99.90
37242;DHT22;23135;51.078;12.108;2023-04-03T10:02:36;4.30;99.90
37242;DHT22;23135;51.078;12.108;2023-04-03T10:05:05;4.10;99.90
37242;DHT22;23135;51.078;12.108;2023-04-03T10:07:49;3.90;99.90
37242;DHT22;23135;51.078;12.108;2023-04-03T10:10:21;4.00;99.90
37242;DHT22;23135;51.078;12.108;2023-04-03T10:12:57;4.10;99.90
37242;DHT22;23135;51.078;12.108;2023-04-03T10:15:28;4.20;99.90
37242;DHT22;23135;51.078;12.108;2023-04-03T10:18:02;4.60;99.90
37242;DHT22;23135;51.078;12.108;2023-04-03T10:20:40;5.40;99.90
37242;DHT22;23135;51.078;12.108;2023-04-03T10:23:18;5.90;99.90
37242;DHT22;23135;51.078;12.108;2023-04-03T10:31:46;6.00;99.90
37242;DHT22;23135;51.078;12.108;2023-04-03T10:34:35;5.90;99.90
37242;DHT22;23135;51.078;12.108;2023-04-03T10:37:21;6.00;99.80
37242;DHT22;23135;51.078;12.108;2023-04-03T10:40:05;6.80;99.90
37242;DHT22;23135;51.078;12.108;2023-04-03T10:42:48;7.00;99.10
37242;DHT22;23135;51.078;12.108;2023-04-03T10:45:20;6.90;99.90
37242;DHT22;23135;51.078;12.108;2023-04-03T10:51:05;6.80;98.70
37242;DHT22;23135;51.078;12.108;2023-04-03T10:56:22;6.20;99.70
37242;DHT22;23135;51.078;12.108;2023-04-03T11:01:47;5.80;99.90
37242;DHT22;23135;51.078;12.108;2023-04-03T11:04:15;6.30;99.90
37242;DHT22;23135;51.078;12.108;2023-04-03T11:07:10;6.70;98.90
37242;DHT22;23135;51.078;12.108;2023-04-03T11:09:41;6.70;99.90
37242;DHT22;23135;51.078;12.108;2023-04-03T11:12:17;6.80;99.30
37242;DHT22;23135;51.078;12.108;2023-04-03T11:14:47;6.80;98.80
37242;DHT22;23135;51.078;12.108;2023-04-03T11:20:13;6.80;98.50
37242;DHT22;23135;51.078;12.108;2023-04-03T11:22:42;6.80;97.60
37242;DHT22;23135;51.078;12.108;2023-04-03T11:35:52;7.10;99.50
37242;DHT22;23135;51.078;12.108;2023-04-03T11:38:30;7.40;98.80
37242;DHT22;23135;51.078;12.108;2023-04-03T11:41:00;7.80;97.50
37242;DHT22;23135;51.078;12.108;2023-04-03T11:43:31;7.50;95.90
37242;DHT22;23135;51.078;12.108;2023-04-03T11:46:03;7.50;97.00
37242;DHT22;23135;51.078;12.108;2023-04-03T11:53:42;6.30;97.50
37242;DHT22;23135;51.078;12.108;2023-04-03T12:01:57;6.90;96.20
37242;DHT22;23135;51.078;12.108;2023-04-03T12:04:26;6.70;97.40
37242;DHT22;23135;51.078;12.108;2023-04-03T12:07:19;6.50;98.20
37242;DHT22;23135;51.078;12.108;2023-04-03T12:12:34;5.70;97.80
37242;DHT22;23135;51.078;12.108;2023-04-03T12:17:56;7.10;98.90
37242;DHT22;23135;51.078;12.108;2023-04-03T12:23:25;8.30;96.50
37242;DHT22;23135;51.078;12.108;2023-04-03T12:25:51;8.80;96.40
37242;DHT22;23135;51.078;12.108;2023-04-03T12:28:24;8.60;95.60
37242;DHT22;23135;51.078;12.108;2023-04-03T12:30:50;7.80;94.50
37242;DHT22;23135;51.078;12.108;2023-04-03T12:33:20;7.40;96.60
37242;DHT22;23135;51.078;12.108;2023-04-03T12:36:06;6.90;96.50
37242;DHT22;23135;51.078;12.108;2023-04-03T12:38:41;6.70;97.50
37242;DHT22;23135;51.078;12.108;2023-04-03T12:46:43;8.20;96.90
37242;DHT22;23135;51.078;12.108;2023-04-03T12:51:53;7.70;95.20
37242;DHT22;23135;51.078;12.108;2023-04-03T12:54:23;7.10;96.60
37242;DHT22;23135;51.078;12.108;2023-04-03T12:56:51;6.70;95.80
37242;DHT22;23135;51.078;12.108;2023-04-03T12:59:23;6.40;96.70
37242;DHT22;23135;51.078;12.108;2023-04-03T13:01:59;6.40;96.50
37242;DHT22;23135;51.078;12.108;2023-04-03T13:04:27;6.30;97.10
37242;DHT22;23135;51.078;12.108;2023-04-03T13:06:53;6.20;97.10
37242;DHT22;23135;51.078;12.108;2023-04-03T13:09:23;6.00;97.80
37242;DHT22;23135;51.078;12.108;2023-04-03T13:11:57;5.80;97.10
37242;DHT22;23135;51.078;12.108;2023-04-03T13:14:27;5.80;97.40
37242;DHT22;23135;51.078;12.108;2023-04-03T13:19:20;5.70;99.20
37242;DHT22;23135;51.078;12.108;2023-04-03T13:22:08;5.60;98.50
37242;DHT22;23135;51.078;12.108;2023-04-03T13:24:37;5.60;98.50
37242;DHT22;23135;51.078;12.108;2023-04-03T13:27:04;6.40;97.40
37242;DHT22;23135;51.078;12.108;2023-04-03T13:29:34;6.50;96.40
37242;DHT22;23135;51.078;12.108;2023-04-03T13:32:01;6.10;96.60
37242;DHT22;23135;51.078;12.108;2023-04-03T13:34:32;5.90;97.80
37242;DHT22;23135;51.078;12.108;2023-04-03T13:37:01;5.90;97.80
37242;DHT22;23135;51.078;12.108;2023-04-03T13:39:37;5.70;97.50
37242;DHT22;23135;51.078;12.108;2023-04-03T13:42:24;5.70;98.20
37242;DHT22;23135;51.078;12.108;2023-04-03T13:45:22;5.60;97.40
37242;DHT22;23135;51.078;12.108;2023-04-03T13:47:50;5.60;97.40
37242;DHT22;23135;51.078;12.108;2023-04-03T13:50:25;5.50;97.20
37242;DHT22;23135;51.078;12.108;2023-04-03T13:53:12;5.50;98.00
37242;DHT22;23135;51.078;12.108;2023-04-03T13:58:29;5.50;99.10
37242;DHT22;23135;51.078;12.108;2023-04-03T14:01:32;5.30;98.40
37242;DHT22;23135;51.078;12.108;2023-04-03T14:06:17;5.30;99.30
37242;DHT22;23135;51.078;12.108;2023-04-03T14:08:44;5.40;98.70
37242;DHT22;23135;51.078;12.108;2023-04-03T14:11:26;5.30;97.90
37242;DHT22;23135;51.078;12.108;2023-04-03T14:13:53;5.40;98.20
37242;DHT22;23135;51.078;12.108;2023-04-03T14:16:22;5.20;98.10
37242;DHT22;23135;51.078;12.108;2023-04-03T14:18:49;5.10;98.80
37242;DHT22;23135;51.078;12.108;2023-04-03T14:21:17;5.10;99.30
37242;DHT22;23135;51.078;12.108;2023-04-03T14:23:43;5.10;98.50
37242;DHT22;23135;51.078;12.108;2023-04-03T14:26:18;5.10;97.60
37242;DHT22;23135;51.078;12.108;2023-04-03T14:28:47;5.10;97.90
37242;DHT22;23135;51.078;12.108;2023-04-03T14:31:14;5.10;97.90
37242;DHT22;23135;51.078;12.108;2023-04-03T14:33:41;5.10;97.70
37242;DHT22;23135;51.078;12.108;2023-04-03T14:36:15;5.20;97.90
37242;DHT22;23135;51.078;12.108;2023-04-03T14:38:43;5.10;97.90
37242;DHT22;23135;51.078;12.108;2023-04-03T14:41:14;5.00;98.00
37242;DHT22;23135;51.078;12.108;2023-04-03T14:43:40;5.00;98.50
37242;DHT22;23135;51.078;12.108;2023-04-03T14:46:17;5.00;98.10
37242;DHT22;23135;51.078;12.108;2023-04-03T14:48:44;5.00;98.10
37242;DHT22;23135;51.078;12.108;2023-04-03T14:51:11;5.00;97.90
37242;DHT22;23135;51.078;12.108;2023-04-03T14:53:38;5.00;98.90
37242;DHT22;23135;51.078;12.108;2023-04-03T14:56:23;5.00;98.80
37242;DHT22;23135;51.078;12.108;2023-04-03T14:58:55;5.00;97.40
37242;DHT22;23135;51.078;12.108;2023-04-03T15:01:21;5.00;97.60
37242;DHT22;23135;51.078;12.108;2023-04-03T15:03:47;4.90;97.90
37242;DHT22;23135;51.078;12.108;2023-04-03T15:06:14;4.90;97.70
37242;DHT22;23135;51.078;12.108;2023-04-03T15:08:40;4.80;97.80
37242;DHT22;23135;51.078;12.108;2023-04-03T15:11:08;4.70;99.10
37242;DHT22;23135;51.078;12.108;2023-04-03T15:13:34;4.70;98.80
37242;DHT22;23135;51.078;12.108;2023-04-03T15:16:00;4.70;98.90
37242;DHT22;23135;51.078;12.108;2023-04-03T15:18:27;4.60;98.40
37242;DHT22;23135;51.078;12.108;2023-04-03T15:20:56;4.60;98.90
37242;DHT22;23135;51.078;12.108;2023-04-03T15:23:21;4.60;98.40
37242;DHT22;23135;51.078;12.108;2023-04-03T15:25:52;4.60;98.90
37242;DHT22;23135;51.078;12.108;2023-04-03T15:28:35;4.50;98.90
37242;DHT22;23135;51.078;12.108;2023-04-03T15:31:02;4.40;98.80
37242;DHT22;23135;51.078;12.108;2023-04-03T15:33:28;4.40;99.90
37242;DHT22;23135;51.078;12.108;2023-04-03T15:35:54;4.30;99.40
37242;DHT22;23135;51.078;12.108;2023-04-03T15:38:20;4.30;99.60
37242;DHT22;23135;51.078;12.108;2023-04-03T15:40:45;4.30;99.70
37242;DHT22;23135;51.078;12.108;2023-04-03T15:43:13;4.30;99.60
37242;DHT22;23135;51.078;12.108;2023-04-03T15:45:40;4.20;99.60
37242;DHT22;23135;51.078;12.108;2023-04-03T15:48:06;4.20;99.90
37242;DHT22;23135;51.078;12.108;2023-04-03T15:50:33;4.30;99.90
37242;DHT22;23135;51.078;12.108;2023-04-03T15:52:58;4.20;99.90
37242;DHT22;23135;51.078;12.108;2023-04-03T15:55:26;4.10;99.50
37242;DHT22;23135;51.078;12.108;2023-04-03T15:57:52;4.10;99.90
37242;DHT22;23135;51.078;12.108;2023-04-03T16:00:18;4.10;99.90
37242;DHT22;23135;51.078;12.108;2023-04-03T16:02:46;4.10;99.90
37242;DHT22;23135;51.078;12.108;2023-04-03T16:05:13;4.10;99.10
37242;DHT22;23135;51.078;12.108;2023-04-03T16:07:40;4.10;99.60
37242;DHT22;23135;51.078;12.108;2023-04-03T16:10:07;4.00;99.90
37242;DHT22;23135;51.078;12.108;2023-04-03T16:12:33;3.90;99.90
37242;DHT22;23135;51.078;12.108;2023-04-03T16:14:59;3.90;99.90
37242;DHT22;23135;51.078;12.108;2023-04-03T16:17:26;3.90;99.90
37242;DHT22;23135;51.078;12.108;2023-04-03T16:19:52;3.90;99.90
37242;DHT22;23135;51.078;12.108;2023-04-03T16:22:17;3.80;99.90
37242;DHT22;23135;51.078;12.108;2023-04-03T16:24:43;3.80;99.90
37242;DHT22;23135;51.078;12.108;2023-04-03T16:27:08;3.80;99.90
37242;DHT22;23135;51.078;12.108;2023-04-03T16:29:34;3.70;99.90
37242;DHT22;23135;51.078;12.108;2023-04-03T16:32:01;3.60;99.90
37242;DHT22;23135;51.078;12.108;2023-04-03T16:34:27;3.60;99.90
37242;DHT22;23135;51.078;12.108;2023-04-03T16:36:54;3.60;99.90
37242;DHT22;23135;51.078;12.108;2023-04-03T16:39:19;3.60;99.90
37242;DHT22;23135;51.078;12.108;2023-04-03T16:41:45;3.50;99.70
37242;DHT22;23135;51.078;12.108;2023-04-03T16:44:11;3.50;99.90
37242;DHT22;23135;51.078;12.108;2023-04-03T16:46:36;3.50;99.90
37242;DHT22;23135;51.078;12.108;2023-04-03T16:49:02;3.50;99.50
37242;DHT22;23135;51.078;12.108;2023-04-03T16:51:28;3.40;99.00
37242;DHT22;23135;51.078;12.108;2023-04-03T16:53:54;3.40;99.40
37242;DHT22;23135;51.078;12.108;2023-04-03T16:56:20;3.40;99.60